createdAt,value
2023-06-06T00:01:11.264Z,5.15
2023-06-06T00:03:34.992Z,5.40
2023-06-06T00:06:00.520Z,5.00
2023-06-06T00:08:25.095Z,5.00
2023-06-06T00:10:48.381Z,4.63
2023-06-06T00:13:15.269Z,4.70
2023-06-06T00:15:40.224Z,4.90
2023-06-06T00:18:03.572Z,4.65
2023-06-06T00:20:27.003Z,5.10
2023-06-06T00:22:54.348Z,4.63
2023-06-06T00:25:17.239Z,5.03
2023-06-06T00:27:39.941Z,4.80
2023-06-06T00:30:03.983Z,5.03
2023-06-06T00:32:28.595Z,4.82
2023-06-06T00:34:51.286Z,4.50
2023-06-06T00:37:14.661Z,5.00
2023-06-06T00:39:37.307Z,4.88
2023-06-06T00:42:00.014Z,5.03
2023-06-06T00:44:22.765Z,5.35
2023-06-06T00:46:45.955Z,4.97
2023-06-06T00:49:13.384Z,5.60
2023-06-06T00:51:36.131Z,5.70
2023-06-06T00:54:00.783Z,6.00
2023-06-06T00:56:29.619Z,5.82
2023-06-06T00:58:52.885Z,5.50
2023-06-06T01:01:18.037Z,6.07
2023-06-06T01:03:42.286Z,6.20
2023-06-06T01:06:06.770Z,5.78
2023-06-06T01:08:29.835Z,6.43
2023-06-06T01:11:02.077Z,5.80
2023-06-06T01:13:39.728Z,6.10
2023-06-06T01:16:13.483Z,6.50
2023-06-06T01:18:38.882Z,6.82
2023-06-06T01:21:03.015Z,6.05
2023-06-06T01:23:29.175Z,6.27
2023-06-06T01:25:51.924Z,6.35
2023-06-06T01:28:18.856Z,6.28
2023-06-06T01:30:43.631Z,6.50
2023-06-06T01:33:22.962Z,6.38
2023-06-06T01:36:12.141Z,6.17
2023-06-06T01:38:57.245Z,7.03
2023-06-06T01:41:21.603Z,6.45
2023-06-06T01:43:54.192Z,6.97
2023-06-06T01:46:19.011Z,6.70
2023-06-06T01:48:42.573Z,6.13
2023-06-06T01:51:06.676Z,6.40
2023-06-06T01:53:29.338Z,6.25
2023-06-06T01:55:52.491Z,7.00
2023-06-06T01:58:16.814Z,6.47
2023-06-06T02:00:39.564Z,6.23
2023-06-06T02:03:02.997Z,6.32
2023-06-06T02:05:25.711Z,6.43
2023-06-06T02:07:50.873Z,6.35
2023-06-06T02:10:14.810Z,6.95
2023-06-06T02:12:37.783Z,6.90
2023-06-06T02:15:04.763Z,7.00
2023-06-06T02:17:28.153Z,6.82
2023-06-06T02:19:51.043Z,7.20
2023-06-06T02:22:14.449Z,6.97
2023-06-06T02:24:38.275Z,6.50
2023-06-06T02:27:01.027Z,6.25
2023-06-06T02:29:24.578Z,6.97
2023-06-06T02:31:48.933Z,7.25
2023-06-06T02:34:11.620Z,8.05
2023-06-06T02:36:35.031Z,8.03
2023-06-06T02:38:58.307Z,8.35
2023-06-06T02:41:21.030Z,7.30
2023-06-06T02:43:43.850Z,8.23
2023-06-06T02:46:08.398Z,9.43
2023-06-06T02:48:31.313Z,8.13
2023-06-06T02:50:54.290Z,9.07
2023-06-06T02:53:17.051Z,9.98
2023-06-06T02:55:39.842Z,9.60
2023-06-06T02:58:02.689Z,8.52
2023-06-06T03:00:25.692Z,8.63
2023-06-06T03:02:48.952Z,8.95
2023-06-06T03:05:13.236Z,8.48
2023-06-06T03:08:17.508Z,8.98
2023-06-06T03:10:40.253Z,8.35
2023-06-06T03:13:02.863Z,8.63
2023-06-06T03:15:26.361Z,9.02
2023-06-06T03:17:50.354Z,9.02
2023-06-06T03:20:17.018Z,8.55
2023-06-06T03:22:45.595Z,9.60
2023-06-06T03:25:08.845Z,8.83
2023-06-06T03:27:31.856Z,8.85
2023-06-06T03:29:55.212Z,9.48
2023-06-06T03:32:21.337Z,8.65
2023-06-06T03:34:44.132Z,9.57
2023-06-06T03:37:09.210Z,8.90
2023-06-06T03:39:32.299Z,9.52
2023-06-06T03:41:55.167Z,8.65
2023-06-06T03:44:18.228Z,8.68
2023-06-06T03:46:41.708Z,8.93
2023-06-06T03:49:04.987Z,8.47
2023-06-06T03:51:27.791Z,9.38
2023-06-06T03:53:50.955Z,9.07
2023-06-06T03:56:14.690Z,8.23
2023-06-06T03:58:37.863Z,9.10
2023-06-06T04:01:01.089Z,8.47
2023-06-06T04:03:24.209Z,8.75
2023-06-06T04:05:49.851Z,8.00
2023-06-06T04:08:13.879Z,9.07
2023-06-06T04:10:36.634Z,8.65
2023-06-06T04:13:00.233Z,8.63
2023-06-06T04:15:23.061Z,8.18
2023-06-06T04:17:46.549Z,9.27
2023-06-06T04:20:09.925Z,9.93
2023-06-06T04:22:32.834Z,8.38
2023-06-06T04:24:55.875Z,8.87
2023-06-06T04:27:19.302Z,8.25
2023-06-06T04:29:42.756Z,8.45
2023-06-06T04:32:08.396Z,8.10
2023-06-06T04:34:31.980Z,8.90
2023-06-06T04:37:18.705Z,8.30
2023-06-06T04:39:44.023Z,8.43
2023-06-06T04:42:08.970Z,8.45
2023-06-06T04:44:32.627Z,9.48
2023-06-06T04:47:02.485Z,8.95
2023-06-06T04:49:26.336Z,9.07
2023-06-06T04:51:49.045Z,8.57
2023-06-06T04:54:11.875Z,8.90
2023-06-06T04:56:35.507Z,8.82
2023-06-06T04:59:07.831Z,8.57
2023-06-06T05:01:31.770Z,7.73
2023-06-06T05:03:55.041Z,8.27
2023-06-06T05:06:18.206Z,8.18
2023-06-06T05:08:42.570Z,8.45
2023-06-06T05:11:05.442Z,8.90
2023-06-06T05:13:28.308Z,8.10
2023-06-06T05:15:51.082Z,8.77
2023-06-06T05:18:13.893Z,8.45
2023-06-06T05:20:36.855Z,8.80
2023-06-06T05:23:00.915Z,8.48
2023-06-06T05:25:26.681Z,8.63
2023-06-06T05:27:52.993Z,8.43
2023-06-06T05:30:16.467Z,8.48
2023-06-06T05:32:39.426Z,9.20
2023-06-06T05:35:03.101Z,9.70
2023-06-06T05:37:25.948Z,9.07
2023-06-06T05:39:48.625Z,8.50
2023-06-06T05:42:11.296Z,8.98
2023-06-06T05:44:34.121Z,9.40
2023-06-06T05:46:57.293Z,8.68
2023-06-06T05:49:21.100Z,9.27
2023-06-06T05:51:43.868Z,9.18
2023-06-06T05:54:16.931Z,8.57
2023-06-06T05:56:41.428Z,8.90
2023-06-06T05:59:04.206Z,9.10
2023-06-06T06:01:27.959Z,9.00
2023-06-06T06:03:51.182Z,8.73
2023-06-06T06:06:14.230Z,9.80
2023-06-06T06:08:37.841Z,9.18
2023-06-06T06:11:00.745Z,10.23
2023-06-06T06:13:23.617Z,9.03
2023-06-06T06:15:46.384Z,9.48
2023-06-06T06:18:11.304Z,9.95
2023-06-06T06:20:34.740Z,10.05
2023-06-06T06:22:57.406Z,10.18
2023-06-06T06:25:21.388Z,10.03
2023-06-06T06:27:46.350Z,9.95
2023-06-06T06:30:10.633Z,10.63
2023-06-06T06:32:37.197Z,10.43
2023-06-06T06:35:02.496Z,10.63
2023-06-06T06:37:26.837Z,10.60
2023-06-06T06:39:50.319Z,10.50
2023-06-06T06:42:13.067Z,11.20
2023-06-06T06:44:47.354Z,10.98
2023-06-06T06:47:10.559Z,12.13
2023-06-06T06:49:33.317Z,11.93
2023-06-06T06:51:56.065Z,11.70
2023-06-06T06:54:23.770Z,13.27
2023-06-06T06:56:46.894Z,12.93
2023-06-06T06:59:12.591Z,12.55
2023-06-06T07:01:35.920Z,13.93
2023-06-06T07:03:58.882Z,13.65
2023-06-06T07:06:23.494Z,13.82
2023-06-06T07:08:46.347Z,14.43
2023-06-06T07:11:09.230Z,13.73
2023-06-06T07:13:32.784Z,13.90
2023-06-06T07:15:55.538Z,13.50
2023-06-06T07:18:18.693Z,14.10
2023-06-06T07:20:42.302Z,14.35
2023-06-06T07:23:07.028Z,14.38
2023-06-06T07:25:31.889Z,14.20
2023-06-06T07:32:39.365Z,15.18
2023-06-06T07:35:02.253Z,14.35
2023-06-06T07:45:53.797Z,15.55
2023-06-06T07:48:17.075Z,15.90
2023-06-06T07:50:40.399Z,16.90
2023-06-06T07:53:03.478Z,17.83
2023-06-06T07:55:26.488Z,16.67
2023-06-06T07:57:49.333Z,17.23
2023-06-06T08:00:14.160Z,17.95
2023-06-06T08:02:37.130Z,17.55
2023-06-06T08:05:00.922Z,18.90
2023-06-06T08:07:24.262Z,16.40
2023-06-06T08:09:47.209Z,16.83
2023-06-06T08:12:11.339Z,17.92
2023-06-06T08:14:36.530Z,18.75
2023-06-06T08:16:59.219Z,18.05
2023-06-06T08:19:22.075Z,19.53
2023-06-06T08:21:44.792Z,20.02
2023-06-06T08:24:07.695Z,18.35
2023-06-06T08:26:30.600Z,18.77
2023-06-06T08:28:53.332Z,19.02
2023-06-06T08:31:16.348Z,17.53
2023-06-06T08:33:42.374Z,16.83
2023-06-06T08:36:05.912Z,17.65
2023-06-06T08:38:28.670Z,17.95
2023-06-06T08:40:54.188Z,17.92
2023-06-06T08:43:18.033Z,17.83
2023-06-06T08:45:57.721Z,18.23
2023-06-06T08:48:21.376Z,17.17
2023-06-06T08:50:44.827Z,17.35
2023-06-06T08:53:08.140Z,18.08
2023-06-06T08:55:36.234Z,17.47
2023-06-06T08:57:58.985Z,17.35
2023-06-06T09:00:22.952Z,17.77
2023-06-06T09:02:48.577Z,17.65
2023-06-06T09:05:15.008Z,17.42
2023-06-06T09:07:39.213Z,17.97
2023-06-06T09:10:02.244Z,17.20
2023-06-06T09:12:25.786Z,17.15
2023-06-06T09:14:48.665Z,17.27
2023-06-06T09:17:19.172Z,17.02
2023-06-06T09:19:46.051Z,17.20
2023-06-06T09:22:08.949Z,17.35
2023-06-06T09:24:32.326Z,18.00
2023-06-06T09:26:55.253Z,17.60
2023-06-06T09:29:18.011Z,17.35
2023-06-06T09:31:42.259Z,17.73
2023-06-06T09:34:06.450Z,17.95
2023-06-06T09:36:30.445Z,17.17
2023-06-06T09:38:53.826Z,16.50
2023-06-06T09:41:20.217Z,16.73
2023-06-06T09:43:43.839Z,15.93
2023-06-06T09:46:07.276Z,15.77
2023-06-06T09:48:30.422Z,14.55
2023-06-06T09:50:53.551Z,14.73
2023-06-06T09:53:16.978Z,13.57
2023-06-06T09:55:41.650Z,12.83
2023-06-06T09:58:04.530Z,12.45
2023-06-06T10:00:29.074Z,14.05
2023-06-06T10:02:53.126Z,12.75
2023-06-06T10:05:23.187Z,13.30
2023-06-06T10:07:47.339Z,12.83
2023-06-06T10:10:13.975Z,13.30
2023-06-06T10:12:37.069Z,12.75
2023-06-06T10:15:01.807Z,13.13
2023-06-06T10:17:25.887Z,12.52
2023-06-06T10:19:48.798Z,12.33
2023-06-06T10:22:11.712Z,13.10
2023-06-06T10:24:36.678Z,13.48
2023-06-06T10:27:22.181Z,13.18
2023-06-06T10:30:17.407Z,13.25
2023-06-06T10:32:57.547Z,12.57
2023-06-06T10:35:21.383Z,12.98
2023-06-06T10:38:08.720Z,11.68
2023-06-06T10:40:57.250Z,11.23
2023-06-06T10:43:35.886Z,11.75
2023-06-06T10:45:58.828Z,11.00
2023-06-06T10:48:40.005Z,10.63
2023-06-06T10:51:02.860Z,12.02
2023-06-06T10:53:26.387Z,10.43
2023-06-06T10:55:49.515Z,10.32
2023-06-06T10:58:24.576Z,8.73
2023-06-06T11:00:49.805Z,6.72
2023-06-06T11:03:17.173Z,7.20
2023-06-06T11:06:02.106Z,7.28
2023-06-06T11:08:34.398Z,7.10
2023-06-06T11:11:14.726Z,7.17
2023-06-06T11:13:37.696Z,7.85
2023-06-06T11:16:00.504Z,7.90
2023-06-06T11:18:41.210Z,8.02
2023-06-06T11:21:04.960Z,7.10
2023-06-06T11:23:40.239Z,7.67
2023-06-06T11:26:03.106Z,7.00
2023-06-06T11:28:26.724Z,6.53
2023-06-06T11:30:49.753Z,6.18
2023-06-06T11:33:12.886Z,7.00
2023-06-06T11:35:39.928Z,6.33
2023-06-06T11:38:02.833Z,6.57
2023-06-06T11:40:27.405Z,7.25
2023-06-06T11:42:50.136Z,6.57
2023-06-06T11:45:17.074Z,6.70
2023-06-06T11:47:40.640Z,6.50
2023-06-06T11:50:03.957Z,6.55
2023-06-06T11:52:27.099Z,7.57
2023-06-06T11:55:05.903Z,7.70
2023-06-06T11:57:28.882Z,6.95
2023-06-06T11:59:55.936Z,6.63
2023-06-06T12:02:18.796Z,6.40
2023-06-06T12:04:48.133Z,6.72
2023-06-06T12:07:11.006Z,6.63
2023-06-06T12:09:36.787Z,6.80
2023-06-06T12:12:02.168Z,6.30
2023-06-06T12:14:26.658Z,6.20
2023-06-06T12:16:49.934Z,6.18
2023-06-06T12:19:16.911Z,6.50
2023-06-06T12:21:51.965Z,7.00
2023-06-06T12:24:26.050Z,6.53
2023-06-06T12:27:06.537Z,6.65
2023-06-06T12:29:35.048Z,6.90
2023-06-06T12:32:17.028Z,6.97
2023-06-06T12:34:50.737Z,7.00
2023-06-06T12:37:13.501Z,6.80
2023-06-06T12:39:39.396Z,7.28
2023-06-06T12:42:12.071Z,7.35
2023-06-06T12:44:34.681Z,7.35
2023-06-06T12:46:57.552Z,6.88
2023-06-06T12:49:20.251Z,7.07
2023-06-06T12:51:44.106Z,6.88
2023-06-06T12:54:07.747Z,7.38
2023-06-06T12:56:30.798Z,7.60
2023-06-06T12:58:53.723Z,7.53
2023-06-06T13:01:16.730Z,7.37
2023-06-06T13:03:39.772Z,7.25
2023-06-06T13:06:02.673Z,7.72
2023-06-06T13:08:37.162Z,7.72
2023-06-06T13:11:01.490Z,9.13
2023-06-06T13:13:25.081Z,7.90
2023-06-06T13:15:47.849Z,7.70
2023-06-06T13:18:11.721Z,8.52
2023-06-06T13:20:34.457Z,8.25
2023-06-06T13:22:57.055Z,8.20
2023-06-06T13:25:21.269Z,8.47
2023-06-06T13:27:43.987Z,7.97
2023-06-06T13:30:07.409Z,7.90
2023-06-06T13:32:31.172Z,7.93
2023-06-06T13:34:54.444Z,8.63
2023-06-06T13:37:17.306Z,8.27
2023-06-06T13:39:40.050Z,8.55
2023-06-06T13:42:02.718Z,8.35
2023-06-06T13:44:26.230Z,8.82
2023-06-06T13:47:01.047Z,8.43
2023-06-06T13:50:05.613Z,8.33
2023-06-06T13:52:28.566Z,8.80
2023-06-06T13:54:52.093Z,8.30
2023-06-06T13:57:15.046Z,8.65
2023-06-06T13:59:37.712Z,8.90
2023-06-06T14:02:00.830Z,9.30
2023-06-06T14:04:23.727Z,9.80
2023-06-06T14:06:46.796Z,9.70
2023-06-06T14:09:09.731Z,9.23
2023-06-06T14:11:32.525Z,9.65
2023-06-06T14:13:55.695Z,9.07
2023-06-06T14:16:18.602Z,10.15
2023-06-06T14:18:44.713Z,11.13
2023-06-06T14:21:19.683Z,11.80
2023-06-06T14:23:42.561Z,12.35
2023-06-06T14:26:05.234Z,12.50
2023-06-06T14:28:27.958Z,12.50
2023-06-06T14:30:50.725Z,13.30
2023-06-06T14:33:13.742Z,12.40
2023-06-06T14:35:36.481Z,12.95
2023-06-06T14:37:59.803Z,13.13
2023-06-06T14:40:22.465Z,12.88
2023-06-06T14:42:45.161Z,13.63
2023-06-06T14:45:08.420Z,12.43
2023-06-06T14:47:31.222Z,13.73
2023-06-06T14:49:53.952Z,13.57
2023-06-06T14:52:16.697Z,13.98
2023-06-06T14:54:44.029Z,13.95
2023-06-06T14:57:07.360Z,14.23
2023-06-06T14:59:31.097Z,12.50
2023-06-06T15:01:54.066Z,13.37
2023-06-06T15:04:16.682Z,14.45
2023-06-06T15:06:39.402Z,14.40
2023-06-06T15:09:05.176Z,14.88
2023-06-06T15:11:29.852Z,14.93
2023-06-06T15:13:53.195Z,15.20
2023-06-06T15:16:15.987Z,15.55
2023-06-06T15:18:39.305Z,15.98
2023-06-06T15:21:01.952Z,16.02
2023-06-06T15:23:24.675Z,17.20
2023-06-06T15:25:48.335Z,16.50
2023-06-06T15:28:11.624Z,17.17
2023-06-06T15:30:34.305Z,16.40
2023-06-06T15:32:57.089Z,16.08
2023-06-06T15:35:20.197Z,17.08
2023-06-06T15:37:43.154Z,16.17
2023-06-06T15:40:06.420Z,15.77
2023-06-06T15:42:29.428Z,14.75
2023-06-06T15:44:57.576Z,14.13
2023-06-06T15:47:20.609Z,14.38
2023-06-06T15:49:43.242Z,13.43
2023-06-06T15:52:06.263Z,13.52
2023-06-06T15:54:28.904Z,13.65
2023-06-06T15:56:51.578Z,13.40
2023-06-06T15:59:14.247Z,13.48
2023-06-06T16:01:37.186Z,13.30
2023-06-06T16:04:00.433Z,13.18
2023-06-06T16:06:26.891Z,13.25
2023-06-06T16:08:49.770Z,12.63
2023-06-06T16:11:12.430Z,12.95
2023-06-06T16:13:35.208Z,12.37
2023-06-06T16:15:57.804Z,12.18
2023-06-06T16:18:21.021Z,12.32
2023-06-06T16:20:44.032Z,12.25
2023-06-06T16:23:06.883Z,11.05
2023-06-06T16:25:29.424Z,11.27
2023-06-06T16:27:52.198Z,11.75
2023-06-06T16:30:15.373Z,11.02
2023-06-06T16:32:38.507Z,10.90
2023-06-06T16:35:01.171Z,11.18
2023-06-06T16:37:23.993Z,11.23
2023-06-06T16:39:46.687Z,10.88
2023-06-06T16:42:11.178Z,10.98
2023-06-06T16:44:35.126Z,11.13
2023-06-06T16:46:57.816Z,10.80
2023-06-06T16:49:20.531Z,10.30
2023-06-06T16:51:43.261Z,10.48
2023-06-06T16:54:07.828Z,10.73
2023-06-06T16:56:30.613Z,10.63
2023-06-06T16:58:54.072Z,10.10
2023-06-06T17:01:18.432Z,10.13
2023-06-06T17:03:41.271Z,10.32
2023-06-06T17:06:05.074Z,9.93
2023-06-06T17:08:27.707Z,9.93
2023-06-06T17:10:50.537Z,9.88
2023-06-06T17:13:15.621Z,10.00
2023-06-06T17:15:39.368Z,10.07
2023-06-06T17:18:02.326Z,9.48
2023-06-06T17:20:28.093Z,9.20
2023-06-06T17:22:50.830Z,9.73
2023-06-06T17:25:13.476Z,9.20
2023-06-06T17:27:37.833Z,9.57
2023-06-06T17:30:02.629Z,9.55
2023-06-06T17:32:27.738Z,9.15
2023-06-06T17:34:50.868Z,8.82
2023-06-06T17:37:13.866Z,7.73
2023-06-06T17:39:36.868Z,7.18
2023-06-06T17:41:59.618Z,6.63
2023-06-06T17:44:25.008Z,5.30
2023-06-06T17:46:47.849Z,5.00
2023-06-06T17:49:10.919Z,4.87
2023-06-06T17:51:34.289Z,5.30
2023-06-06T17:54:18.124Z,4.57
2023-06-06T17:56:41.775Z,5.22
2023-06-06T17:59:04.387Z,5.38
2023-06-06T18:01:27.614Z,5.37
2023-06-06T18:03:50.348Z,5.03
2023-06-06T18:06:14.978Z,5.70
2023-06-06T18:08:37.919Z,6.50
2023-06-06T18:11:00.754Z,5.93
2023-06-06T18:13:23.422Z,5.60
2023-06-06T18:15:46.220Z,6.22
2023-06-06T18:18:09.011Z,6.47
2023-06-06T18:20:34.045Z,5.50
2023-06-06T18:22:57.272Z,5.50
2023-06-06T18:25:20.115Z,5.70
2023-06-06T18:27:42.713Z,5.30
2023-06-06T18:30:08.344Z,5.85
2023-06-06T18:32:31.293Z,6.20
2023-06-06T18:34:53.951Z,6.43
2023-06-06T18:37:17.533Z,6.03
2023-06-06T18:39:40.244Z,6.22
2023-06-06T18:42:04.920Z,6.32
2023-06-06T18:44:27.676Z,6.85
2023-06-06T18:46:50.298Z,6.78
2023-06-06T18:49:13.019Z,7.10
2023-06-06T18:51:37.383Z,7.60
2023-06-06T18:54:00.268Z,7.55
2023-06-06T18:56:25.324Z,7.50
2023-06-06T18:58:51.158Z,8.05
2023-06-06T19:01:14.654Z,7.70
2023-06-06T19:03:37.658Z,7.80
2023-06-06T19:06:00.469Z,7.97
2023-06-06T19:08:23.608Z,8.10
2023-06-06T19:10:46.311Z,7.78
2023-06-06T19:13:08.991Z,8.13
2023-06-06T19:15:31.963Z,8.27
2023-06-06T19:17:54.723Z,8.10
2023-06-06T19:20:18.899Z,8.20
2023-06-06T19:22:42.061Z,7.75
2023-06-06T19:25:05.098Z,8.17
2023-06-06T19:27:30.424Z,7.80
2023-06-06T19:29:53.155Z,8.05
2023-06-06T19:32:16.569Z,7.80
2023-06-06T19:34:39.454Z,7.45
2023-06-06T19:37:02.198Z,6.70
2023-06-06T19:39:24.987Z,7.55
2023-06-06T19:41:47.698Z,7.22
2023-06-06T19:44:10.756Z,7.25
2023-06-06T19:46:33.772Z,7.10
2023-06-06T19:48:56.922Z,6.37
2023-06-06T19:51:20.895Z,6.90
2023-06-06T19:53:45.515Z,6.57
2023-06-06T19:56:08.437Z,6.82
2023-06-06T19:58:31.116Z,6.93
2023-06-06T20:00:59.148Z,7.07
2023-06-06T20:03:22.489Z,6.88
2023-06-06T20:05:45.555Z,6.88
2023-06-06T20:08:08.502Z,7.18
2023-06-06T20:10:31.472Z,7.30
2023-06-06T20:12:54.128Z,6.47
2023-06-06T20:15:16.744Z,6.60
2023-06-06T20:17:40.042Z,6.57
2023-06-06T20:20:03.311Z,6.22
2023-06-06T20:22:29.671Z,6.43
2023-06-06T20:24:52.370Z,6.40
2023-06-06T20:27:16.721Z,6.45
2023-06-06T20:29:39.420Z,6.47
2023-06-06T20:32:02.182Z,6.43
2023-06-06T20:34:24.826Z,6.07
2023-06-06T20:36:47.626Z,6.07
2023-06-06T20:39:15.450Z,6.38
2023-06-06T20:41:38.123Z,6.18
2023-06-06T20:44:00.732Z,7.05
2023-06-06T20:46:23.414Z,6.78
2023-06-06T20:48:46.406Z,6.40
2023-06-06T20:51:09.114Z,6.40
2023-06-06T20:53:32.812Z,6.00
2023-06-06T20:55:55.501Z,5.88
2023-06-06T20:58:18.859Z,5.70
2023-06-06T21:00:41.554Z,6.23
2023-06-06T21:03:04.390Z,5.88
2023-06-06T21:05:27.171Z,6.28
2023-06-06T21:07:50.072Z,6.28
2023-06-06T21:10:12.663Z,6.40
2023-06-06T21:12:36.863Z,6.57
2023-06-06T21:15:00.382Z,6.43
2023-06-06T21:17:23.915Z,6.82
2023-06-06T21:19:47.229Z,6.32
2023-06-06T21:22:09.986Z,6.53
2023-06-06T21:24:32.911Z,5.93
2023-06-06T21:26:55.656Z,6.65
2023-06-06T21:29:18.710Z,6.95
2023-06-06T21:31:41.588Z,8.00
2023-06-06T21:34:04.431Z,8.10
2023-06-06T21:36:27.126Z,8.40
2023-06-06T21:38:49.963Z,8.13
2023-06-06T21:41:12.768Z,8.20
2023-06-06T21:43:35.450Z,8.02
2023-06-06T21:45:58.122Z,8.07
2023-06-06T21:48:20.763Z,8.03
2023-06-06T21:50:43.460Z,7.78
2023-06-06T21:53:06.514Z,7.72
2023-06-06T21:55:29.196Z,8.27
2023-06-06T21:57:51.844Z,8.38
2023-06-06T22:00:16.000Z,7.57
2023-06-06T22:02:39.613Z,7.70
2023-06-06T22:05:02.354Z,7.10
2023-06-06T22:07:28.227Z,6.78
2023-06-06T22:09:51.087Z,5.72
2023-06-06T22:12:13.830Z,5.67
2023-06-06T22:14:36.675Z,5.30
2023-06-06T22:16:59.613Z,4.90
2023-06-06T22:19:23.128Z,4.60
2023-06-06T22:21:45.799Z,4.95
2023-06-06T22:24:08.596Z,4.57
2023-06-06T22:26:32.463Z,4.40
2023-06-06T22:28:55.204Z,4.60
2023-06-06T22:31:18.243Z,4.18
2023-06-06T22:33:41.037Z,4.57
2023-06-06T22:36:04.416Z,4.40
2023-06-06T22:38:27.217Z,4.40
2023-06-06T22:40:49.795Z,4.40
2023-06-06T22:43:13.410Z,4.38
2023-06-06T22:45:36.168Z,4.97
2023-06-06T22:47:59.589Z,4.20
2023-06-06T22:50:22.381Z,4.68
2023-06-06T22:52:46.817Z,4.70
2023-06-06T22:55:10.792Z,4.60
2023-06-06T22:57:33.464Z,5.00
2023-06-06T22:59:56.114Z,4.83
2023-06-06T23:02:18.881Z,5.25
2023-06-06T23:04:41.692Z,4.82
2023-06-06T23:07:05.670Z,4.90
2023-06-06T23:09:28.682Z,5.20
2023-06-06T23:11:51.386Z,4.57
2023-06-06T23:14:16.160Z,4.88
2023-06-06T23:16:39.082Z,5.20
2023-06-06T23:19:02.021Z,4.90
2023-06-06T23:21:29.022Z,4.57
2023-06-06T23:23:51.739Z,4.40
2023-06-06T23:26:14.608Z,4.30
2023-06-06T23:28:37.202Z,4.85
2023-06-06T23:31:00.010Z,4.40
2023-06-06T23:33:25.079Z,4.80
2023-06-06T23:35:47.768Z,4.60
2023-06-06T23:38:10.441Z,4.80
2023-06-06T23:40:33.246Z,5.10
2023-06-06T23:42:55.837Z,5.00
2023-06-06T23:45:18.514Z,4.75
2023-06-06T23:47:41.196Z,4.50
2023-06-06T23:50:04.176Z,4.72
2023-06-06T23:52:28.012Z,5.28
2023-06-06T23:54:50.738Z,4.78
2023-06-06T23:57:13.923Z,4.82
2023-06-06T23:59:36.635Z,5.30
